Terminal Aerodrome Forecast
Issued by NWS Jackson, MS

Home | Current Version | Previous Version | Text Only | Print | Product List | Glossary On
Versions: 1 2 3 4 5 6 7 8 9 10 11 12 13 14 15
167
FTUS44 KJAN 022339
TAFMEI
TAF
KMEI 022339Z 0300/0324 06003KT P6SM SCT100
     FM031700 07007KT P6SM -RA OVC050
     FM032100 06010KT P6SM -RA OVC030=

USA.gov is the U.S. government's official web portal to all federal, state and local government web resources and services.